Time;durP1;ratioP1;P1;durP2;ratioP2;P2;SDS_P1;SDS_P2;PMS_P1;PMS_P2;Temp;Humidity;BMP_temperature;BMP_pressure;BME280_temperature;BME280_humidity;BME280_pressure;Samples;Min_cycle;Max_cycle;Signal;HPM_P1;HPM_P2
2021/11/07 00:00:29;;;;;;;3.90;1.55;;;12.70;96.70;;;;;;5074519;28;20028;-79
2021/11/07 00:05:26;;;;;;;5.20;1.92;;;12.80;96.60;;;;;;5090502;28;20038;-79
2021/11/07 00:08:13;;;;;;;6.00;1.73;;;12.80;96.60;;;;;;5080941;28;20398;-79
2021/11/07 00:10:43;;;;;;;4.70;1.80;;;12.80;96.70;;;;;;5087872;28;20058;-79
2021/11/07 00:13:19;;;;;;;9.13;1.83;;;12.80;96.60;;;;;;5092310;28;20456;-79
2021/11/07 00:15:45;;;;;;;8.00;2.30;;;12.80;96.50;;;;;;5090052;28;20085;-79
2021/11/07 00:18:18;;;;;;;8.93;2.30;;;12.80;96.50;;;;;;5079354;28;20031;-79
2021/11/07 00:20:54;;;;;;;10.07;1.98;;;12.80;96.50;;;;;;5079213;28;20032;-79
2021/11/07 00:28:51;;;;;;;5.50;1.35;;;12.80;96.30;;;;;;5086811;28;20036;-79
2021/11/07 00:31:44;;;;;;;6.13;1.67;;;12.90;96.30;;;;;;5085142;28;20037;-79
2021/11/07 00:37:10;;;;;;;2.58;1.50;;;12.80;96.30;;;;;;5035211;28;20111;-79
2021/11/07 00:39:57;;;;;;;6.85;1.70;;;12.80;96.30;;;;;;5085582;28;20073;-80
2021/11/07 00:45:20;;;;;;;8.85;1.77;;;12.90;96.30;;;;;;5080903;28;20028;-79
2021/11/07 00:48:10;;;;;;;2.38;1.00;;;12.80;96.30;;;;;;5079635;28;20024;-80
2021/11/07 00:50:58;;;;;;;4.20;1.67;;;12.90;96.30;;;;;;5089655;28;20048;-79
2021/11/07 00:56:05;;;;;;;3.53;1.85;;;12.90;96.20;;;;;;5093411;28;20464;-80
2021/11/07 00:58:35;;;;;;;8.63;2.45;;;12.90;96.20;;;;;;5105282;28;20020;-79
2021/11/07 01:01:04;;;;;;;10.38;2.58;;;12.90;96.20;;;;;;5103923;28;20051;-79
2021/11/07 01:03:30;;;;;;;10.82;2.35;;;12.90;96.40;;;;;;5100454;28;20039;-80
2021/11/07 01:05:56;;;;;;;5.72;2.38;;;12.80;96.50;;;;;;5099508;28;20032;-79
2021/11/07 01:08:21;;;;;;;5.95;1.95;;;12.80;96.50;;;;;;5098353;28;20027;-80
2021/11/07 01:10:47;;;;;;;11.18;2.30;;;12.90;96.50;;;;;;5097332;28;20379;-79
2021/11/07 01:13:13;;;;;;;7.97;2.50;;;12.90;96.50;;;;;;5098982;28;20064;-79
2021/11/07 01:15:39;;;;;;;11.50;3.05;;;13.00;96.40;;;;;;5092303;28;20028;-79
2021/11/07 01:18:06;;;;;;;11.30;2.20;;;12.90;96.40;;;;;;5099449;28;20103;-79
2021/11/07 01:20:33;;;;;;;6.22;2.00;;;13.00;96.40;;;;;;5091891;28;20035;-80
2021/11/07 01:25:35;;;;;;;12.40;3.50;;;13.00;96.50;;;;;;5100426;28;20382;-79
2021/11/07 01:28:02;;;;;;;15.55;3.67;;;13.00;96.50;;;;;;5096163;28;20408;-79
2021/11/07 01:30:31;;;;;;;16.35;3.15;;;13.00;96.50;;;;;;5093759;28;20154;-79
2021/11/07 01:33:04;;;;;;;13.05;2.92;;;13.00;96.60;;;;;;5104437;28;20032;-79
2021/11/07 01:35:42;;;;;;;;;;;13.00;96.60;;;;;;5097428;28;20039;-79
2021/11/07 01:38:14;;;;;;;8.85;2.67;;;13.10;96.70;;;;;;5109309;28;20046;-79
2021/11/07 01:41:27;;;;;;;11.48;3.22;;;13.00;96.60;;;;;;5098824;28;20037;-80
2021/11/07 01:43:30;;;;;;;11.30;2.75;;;13.00;96.60;;;;;;5087946;28;20178;-79
2021/11/07 01:48:39;;;;;;;15.55;2.88;;;13.10;96.50;;;;;;5091457;28;20115;-80
2021/11/07 01:51:05;;;;;;;12.00;2.67;;;13.10;96.40;;;;;;5097448;28;20026;-79
2021/11/07 01:53:33;;;;;;;6.43;2.38;;;13.10;96.30;;;;;;5110255;28;20150;-79
2021/11/07 01:56:04;;;;;;;12.30;2.70;;;13.20;96.50;;;;;;5108654;28;20039;-80
2021/11/07 01:58:31;;;;;;;6.97;2.55;;;13.20;96.00;;;;;;5109460;28;20039;-80
2021/11/07 02:00:58;;;;;;;5.93;1.58;;;13.20;96.00;;;;;;5107556;28;20039;-80
2021/11/07 02:03:24;;;;;;;7.15;2.15;;;13.20;95.90;;;;;;5102652;28;20062;-79
2021/11/07 02:05:51;;;;;;;11.75;2.88;;;13.20;95.80;;;;;;5104946;28;20081;-79
2021/11/07 02:08:21;;;;;;;8.07;2.40;;;13.20;95.70;;;;;;5107013;28;20474;-80
2021/11/07 02:10:49;;;;;;;13.73;2.65;;;13.30;95.70;;;;;;5099770;28;20380;-79
2021/11/07 02:13:16;;;;;;;16.85;3.70;;;13.20;95.70;;;;;;5101918;28;20055;-79
2021/11/07 02:15:41;;;;;;;20.70;2.97;;;13.20;95.60;;;;;;5105682;28;20028;-79
2021/11/07 02:18:09;;;;;;;15.50;2.92;;;13.20;95.60;;;;;;5100403;28;20030;-79
2021/11/07 02:20:40;;;;;;;4.75;2.03;;;13.20;95.60;;;;;;5098545;28;20066;-80
2021/11/07 02:23:12;;;;;;;11.23;3.20;;;13.20;95.50;;;;;;5100944;28;20027;-80
2021/11/07 02:25:40;;;;;;;4.75;1.77;;;13.20;95.40;;;;;;5095432;28;20541;-80
2021/11/07 02:28:08;;;;;;;15.70;3.25;;;13.30;95.30;;;;;;5091949;28;20085;-79
2021/11/07 02:30:37;;;;;;;17.45;2.92;;;13.20;95.20;;;;;;5102185;28;20043;-79
2021/11/07 02:33:04;;;;;;;9.48;3.00;;;13.20;95.20;;;;;;5101940;28;20051;-79
2021/11/07 02:35:31;;;;;;;12.43;3.05;;;13.20;95.20;;;;;;5100024;28;20110;-79
2021/11/07 02:37:57;;;;;;;8.82;1.77;;;13.20;95.20;;;;;;5105798;28;20032;-79
2021/11/07 02:40:25;;;;;;;4.82;1.65;;;13.10;95.20;;;;;;5094788;28;20080;-79
2021/11/07 02:42:51;;;;;;;4.20;1.17;;;13.10;95.20;;;;;;5108775;28;20129;-79
2021/11/07 02:45:18;;;;;;;11.32;2.08;;;13.20;95.10;;;;;;5108424;28;20038;-79
2021/11/07 02:47:46;;;;;;;9.80;2.63;;;13.20;94.90;;;;;;5104739;27;20027;-79
2021/11/07 02:50:14;;;;;;;7.88;1.48;;;13.30;94.80;;;;;;5095934;28;20506;-79
2021/11/07 02:52:40;;;;;;;9.00;2.15;;;13.30;94.70;;;;;;5096095;28;20055;-79
2021/11/07 02:55:08;;;;;;;13.05;1.98;;;13.30;94.50;;;;;;5111197;28;20023;-80
2021/11/07 02:57:33;;;;;;;4.03;1.90;;;13.30;94.70;;;;;;5100319;28;20429;-80
2021/11/07 03:00:03;;;;;;;12.68;2.10;;;13.30;94.30;;;;;;5098740;28;20020;-80
2021/11/07 03:02:29;;;;;;;12.27;2.63;;;13.30;94.20;;;;;;5094545;28;20490;-80
2021/11/07 03:04:55;;;;;;;15.07;2.28;;;13.30;94.20;;;;;;5109473;28;20023;-80
2021/11/07 03:07:22;;;;;;;8.18;2.13;;;13.20;94.10;;;;;;5110169;28;20035;-80
2021/11/07 03:09:48;;;;;;;14.40;2.35;;;13.30;94.00;;;;;;5094814;28;20032;-80
2021/11/07 03:12:14;;;;;;;8.90;2.42;;;13.20;93.90;;;;;;5094964;28;20391;-79
2021/11/07 03:14:43;;;;;;;6.65;1.70;;;13.10;93.80;;;;;;5094623;28;20042;-79
2021/11/07 03:17:13;;;;;;;16.90;2.55;;;13.20;93.70;;;;;;5104935;28;20505;-79
2021/11/07 03:19:39;;;;;;;7.05;2.13;;;13.10;93.70;;;;;;5095154;28;20072;-79
2021/11/07 03:22:11;;;;;;;6.18;1.95;;;13.00;93.60;;;;;;5103707;27;20028;-80
2021/11/07 03:24:39;;;;;;;10.38;2.55;;;13.00;93.60;;;;;;5095417;28;20093;-79
2021/11/07 03:27:16;;;;;;;7.38;1.95;;;13.00;93.60;;;;;;5094797;28;20028;-80
2021/11/07 03:29:45;;;;;;;12.32;3.17;;;12.90;93.50;;;;;;5101076;28;20136;-79
2021/11/07 03:32:19;;;;;;;8.75;2.85;;;12.90;93.50;;;;;;5099561;28;20478;-79
2021/11/07 03:34:56;;;;;;;13.70;1.52;;;13.00;93.60;;;;;;5094990;28;20059;-79
2021/11/07 03:37:24;;;;;;;13.00;2.42;;;12.90;93.50;;;;;;5109221;28;20111;-79
2021/11/07 03:39:53;;;;;;;10.65;2.17;;;12.90;93.30;;;;;;5103181;28;20486;-79
2021/11/07 03:42:20;;;;;;;7.45;2.67;;;12.90;93.30;;;;;;5095938;28;20023;-80
2021/11/07 03:44:46;;;;;;;4.28;1.40;;;12.90;93.20;;;;;;5098831;28;20032;-79
2021/11/07 03:47:12;;;;;;;18.75;2.83;;;12.90;93.10;;;;;;5096992;28;20023;-80
2021/11/07 03:49:40;;;;;;;8.18;1.77;;;13.00;93.00;;;;;;5095580;28;20032;-79
2021/11/07 03:52:07;;;;;;;14.77;2.30;;;12.90;93.00;;;;;;5093754;28;20028;-78
2021/11/07 03:54:33;;;;;;;9.10;1.98;;;12.90;92.90;;;;;;5095496;28;20036;-80
2021/11/07 03:57:02;;;;;;;19.65;2.35;;;12.90;92.80;;;;;;5098436;28;20039;-80
2021/11/07 03:59:28;;;;;;;7.72;2.13;;;12.90;92.80;;;;;;5095789;28;20479;-80
2021/11/07 04:01:54;;;;;;;9.43;1.90;;;12.90;93.00;;;;;;5109742;28;20020;-80
2021/11/07 04:04:21;;;;;;;6.47;2.75;;;12.90;92.70;;;;;;5104701;28;20494;-80
2021/11/07 04:06:47;;;;;;;8.20;1.75;;;12.80;92.50;;;;;;5105890;28;20406;-80
2021/11/07 04:09:12;;;;;;;8.35;2.47;;;12.90;92.50;;;;;;5093525;28;20487;-80
2021/11/07 04:11:40;;;;;;;10.82;2.17;;;12.80;92.50;;;;;;5097808;28;20070;-80
2021/11/07 04:14:08;;;;;;;9.23;2.53;;;12.90;92.50;;;;;;5100287;28;20032;-80
2021/11/07 04:16:35;;;;;;;7.53;2.55;;;12.90;92.20;;;;;;5099634;28;20032;-80
2021/11/07 04:19:01;;;;;;;8.60;2.53;;;12.90;92.10;;;;;;5097002;28;20111;-80
2021/11/07 04:21:27;;;;;;;12.77;2.72;;;12.80;92.00;;;;;;5099299;27;20108;-80
2021/11/07 04:23:52;;;;;;;5.95;1.90;;;12.70;92.10;;;;;;5103058;28;20123;-80
2021/11/07 04:26:20;;;;;;;12.45;2.60;;;12.60;92.20;;;;;;5096950;28;20065;-79
2021/11/07 04:28:46;;;;;;;9.45;1.23;;;12.60;92.30;;;;;;5094751;28;20036;-79
2021/11/07 04:31:11;;;;;;;15.07;2.50;;;12.50;92.50;;;;;;5104773;28;20108;-80
2021/11/07 04:33:37;;;;;;;8.95;1.70;;;12.50;92.60;;;;;;5093914;28;20407;-79
2021/11/07 04:36:05;;;;;;;15.45;1.92;;;12.50;92.70;;;;;;5093893;28;20020;-79
2021/11/07 04:38:31;;;;;;;9.18;2.08;;;12.60;92.80;;;;;;5097855;28;20063;-79
2021/11/07 04:40:57;;;;;;;10.65;2.13;;;12.60;92.80;;;;;;5092640;28;20046;-79
2021/11/07 04:43:23;;;;;;;3.90;1.65;;;12.70;92.70;;;;;;5093410;28;20047;-79
2021/11/07 04:45:49;;;;;;;1.48;0.80;;;12.60;92.50;;;;;;5092241;28;20364;-79
2021/11/07 04:48:14;;;;;;;2.60;1.30;;;12.70;92.40;;;;;;5098007;28;20024;-79
2021/11/07 04:50:41;;;;;;;9.93;2.17;;;12.70;92.30;;;;;;5096323;28;20036;-79
2021/11/07 04:53:11;;;;;;;12.18;2.35;;;12.70;92.20;;;;;;5107023;28;20188;-79
2021/11/07 04:55:41;;;;;;;4.68;1.90;;;12.60;92.20;;;;;;5092980;28;20115;-79
2021/11/07 04:58:08;;;;;;;11.30;2.28;;;12.60;92.10;;;;;;5099238;28;20558;-79
2021/11/07 05:00:34;;;;;;;7.97;1.77;;;12.50;92.10;;;;;;5093397;28;20027;-79
2021/11/07 05:03:01;;;;;;;13.02;2.33;;;12.50;92.10;;;;;;5099226;28;20482;-79
2021/11/07 05:05:29;;;;;;;8.90;1.85;;;12.40;92.10;;;;;;5097807;28;20547;-79
2021/11/07 05:07:56;;;;;;;12.68;2.85;;;12.30;92.20;;;;;;5094291;28;20103;-79
2021/11/07 05:10:22;;;;;;;16.20;3.15;;;12.30;92.30;;;;;;5103059;28;20490;-79
2021/11/07 05:12:49;;;;;;;13.27;3.05;;;12.20;92.30;;;;;;5093565;28;20123;-79
2021/11/07 05:15:15;;;;;;;11.63;3.17;;;12.20;92.30;;;;;;5104182;28;20035;-79
2021/11/07 05:17:42;;;;;;;12.10;3.00;;;12.10;92.40;;;;;;5102184;28;20352;-80
2021/11/07 05:20:08;;;;;;;13.85;2.63;;;12.00;92.40;;;;;;5095525;28;20058;-80
2021/11/07 05:22:35;;;;;;;9.52;2.60;;;11.90;92.50;;;;;;5107248;27;20031;-80
2021/11/07 05:25:01;;;;;;;13.23;2.40;;;11.90;92.60;;;;;;5098304;28;20042;-79
2021/11/07 05:27:27;;;;;;;19.73;2.30;;;11.80;92.90;;;;;;5096042;28;20032;-80
2021/11/07 05:29:52;;;;;;;13.27;2.80;;;11.90;92.60;;;;;;5095871;28;20024;-80
2021/11/07 05:32:18;;;;;;;4.80;2.03;;;11.80;92.60;;;;;;5096627;28;20038;-80
2021/11/07 05:34:45;;;;;;;5.28;1.85;;;11.90;92.60;;;;;;5096656;28;20106;-80
2021/11/07 05:37:11;;;;;;;11.80;1.67;;;11.80;92.40;;;;;;5101526;28;20082;-79
2021/11/07 05:39:37;;;;;;;8.23;2.00;;;11.80;92.30;;;;;;5096057;28;20021;-81
2021/11/07 05:42:06;;;;;;;7.82;1.98;;;11.80;92.20;;;;;;5092543;28;20147;-79
2021/11/07 05:44:31;;;;;;;13.20;2.63;;;11.80;92.00;;;;;;5095519;28;20040;-80
2021/11/07 05:46:57;;;;;;;7.25;2.03;;;11.70;91.90;;;;;;5102435;28;20028;-80
2021/11/07 05:49:23;;;;;;;3.80;1.38;;;11.70;91.90;;;;;;5095427;28;20016;-80
2021/11/07 05:51:50;;;;;;;14.75;2.05;;;11.60;91.90;;;;;;5093237;28;20475;-81
2021/11/07 05:54:21;;;;;;;15.32;2.65;;;11.50;92.00;;;;;;5092558;28;20048;-80
2021/11/07 05:56:47;;;;;;;12.93;2.90;;;11.50;92.40;;;;;;5092302;28;20032;-80
2021/11/07 05:59:13;;;;;;;15.73;2.47;;;11.50;92.30;;;;;;5094253;28;20031;-80
2021/11/07 06:01:39;;;;;;;12.25;2.92;;;11.40;92.40;;;;;;5093341;28;20031;-79
2021/11/07 06:04:05;;;;;;;11.15;2.33;;;11.30;92.60;;;;;;5104583;28;20383;-80
2021/11/07 06:06:32;;;;;;;9.82;2.55;;;11.20;92.80;;;;;;5095486;28;20072;-80
2021/11/07 06:08:58;;;;;;;11.98;2.33;;;11.20;93.00;;;;;;5091261;28;20108;-80
2021/11/07 06:11:24;;;;;;;6.97;2.08;;;11.20;93.00;;;;;;5094561;28;20089;-81
2021/11/07 06:13:50;;;;;;;11.13;1.85;;;11.30;93.00;;;;;;5093426;28;20097;-80
2021/11/07 06:16:15;;;;;;;7.28;2.10;;;11.30;92.80;;;;;;5097426;28;20028;-80
2021/11/07 06:18:41;;;;;;;3.95;1.02;;;11.40;92.70;;;;;;5099513;28;20101;-80
2021/11/07 06:21:09;;;;;;;5.55;1.25;;;11.50;92.50;;;;;;5102320;27;20046;-80
2021/11/07 06:23:36;;;;;;;8.27;2.17;;;11.50;92.30;;;;;;5104584;28;20027;-80
2021/11/07 06:26:03;;;;;;;4.07;1.25;;;11.60;92.10;;;;;;5099585;28;20127;-82
2021/11/07 06:28:29;;;;;;;4.70;1.42;;;11.60;91.90;;;;;;5096339;28;20032;-78
2021/11/07 06:30:55;;;;;;;8.05;2.90;;;11.60;91.80;;;;;;5101586;28;20039;-82
2021/11/07 06:33:21;;;;;;;4.45;1.27;;;11.50;91.70;;;;;;5102746;28;20101;-86
2021/11/07 06:35:47;;;;;;;7.38;1.77;;;11.50;91.70;;;;;;5103764;28;20032;-80
2021/11/07 06:38:13;;;;;;;5.80;2.10;;;11.50;91.70;;;;;;5099094;28;20052;-80
2021/11/07 06:40:40;;;;;;;18.40;2.70;;;11.50;91.70;;;;;;5098496;28;20039;-80
2021/11/07 06:43:07;;;;;;;6.22;1.95;;;11.40;91.70;;;;;;5102205;28;20487;-80
2021/11/07 06:45:34;;;;;;;8.70;2.05;;;11.40;91.70;;;;;;5104821;28;20039;-80
2021/11/07 06:48:00;;;;;;;6.78;1.83;;;11.30;91.70;;;;;;5099110;28;20085;-80
2021/11/07 06:50:26;;;;;;;9.23;1.90;;;11.30;91.70;;;;;;5097457;28;20085;-80
2021/11/07 06:52:52;;;;;;;15.35;2.17;;;11.30;91.80;;;;;;5099452;28;20075;-80
2021/11/07 06:55:18;;;;;;;4.03;1.58;;;11.30;91.80;;;;;;5114591;28;20070;-80
2021/11/07 06:57:44;;;;;;;9.00;2.25;;;11.30;91.80;;;;;;5104071;28;20020;-80
2021/11/07 07:00:14;;;;;;;10.25;2.08;;;11.20;91.70;;;;;;5108529;28;20032;-80
2021/11/07 07:02:40;;;;;;;12.60;2.85;;;11.20;91.70;;;;;;5101614;28;20121;-81
2021/11/07 07:05:12;;;;;;;3.28;1.40;;;11.20;91.70;;;;;;5100799;28;20463;-81
2021/11/07 07:07:41;;;;;;;7.95;2.15;;;11.20;91.70;;;;;;5095798;28;20114;-80
2021/11/07 07:10:10;;;;;;;4.93;1.33;;;11.20;91.70;;;;;;5101259;28;20035;-80
2021/11/07 07:12:44;;;;;;;4.70;1.70;;;11.20;91.90;;;;;;5095737;28;20032;-81
2021/11/07 07:15:15;;;;;;;2.17;0.98;;;11.20;91.90;;;;;;5107124;28;20039;-81
2021/11/07 07:17:58;;;;;;;6.38;1.85;;;11.20;91.90;;;;;;5096053;28;20137;-80
2021/11/07 07:23:27;;;;;;;13.27;2.60;;;11.20;91.70;;;;;;5106235;28;20058;-81
2021/11/07 07:33:57;;;;;;;14.52;2.88;;;11.10;91.60;;;;;;5103641;28;20046;-81
2021/11/07 07:36:26;;;;;;;17.17;3.17;;;11.10;91.70;;;;;;5096538;28;20032;-81
2021/11/07 07:38:52;;;;;;;22.48;3.28;;;11.00;91.80;;;;;;5100059;28;20035;-80
2021/11/07 07:41:18;;;;;;;13.88;3.00;;;10.90;91.80;;;;;;5096875;28;20028;-81
2021/11/07 07:43:43;;;;;;;5.13;2.10;;;10.90;91.90;;;;;;5100152;28;20505;-81
2021/11/07 07:46:12;;;;;;;10.52;2.40;;;10.90;92.00;;;;;;5112016;28;20023;-81
2021/11/07 07:48:44;;;;;;;10.40;2.28;;;10.90;92.00;;;;;;5099436;28;20073;-85
2021/11/07 07:51:12;;;;;;;12.00;2.08;;;10.90;92.10;;;;;;5100280;28;20028;-86
2021/11/07 07:53:39;;;;;;;8.43;2.95;;;10.80;92.10;;;;;;5101448;28;20114;-86
2021/11/07 07:56:05;;;;;;;6.70;1.88;;;10.80;92.10;;;;;;5101865;28;20103;-84
2021/11/07 07:58:31;;;;;;;9.10;1.73;;;10.80;92.20;;;;;;5097974;28;20034;-86
2021/11/07 08:00:57;;;;;;;8.65;2.08;;;10.80;92.50;;;;;;5100914;28;20024;-84
2021/11/07 08:03:23;;;;;;;14.07;2.92;;;10.80;92.30;;;;;;5095715;28;20036;-83
2021/11/07 08:05:49;;;;;;;8.45;2.60;;;10.80;92.30;;;;;;5101438;28;20467;-86
2021/11/07 08:08:15;;;;;;;12.35;2.28;;;10.80;92.40;;;;;;5106368;28;20031;-85
2021/11/07 08:10:41;;;;;;;12.45;2.30;;;10.80;92.50;;;;;;5103843;28;20038;-87
2021/11/07 08:13:07;;;;;;;34.78;2.15;;;10.80;92.50;;;;;;5107321;28;20036;-83
2021/11/07 08:15:33;;;;;;;12.85;2.97;;;10.90;92.60;;;;;;5099255;28;20028;-84
2021/11/07 08:18:00;;;;;;;7.05;1.80;;;10.90;92.50;;;;;;5103662;28;20074;-82
2021/11/07 08:20:25;;;;;;;7.47;2.15;;;11.00;92.50;;;;;;5103556;28;20103;-81
2021/11/07 08:22:51;;;;;;;4.20;1.60;;;11.00;92.40;;;;;;5099577;28;20454;-80
2021/11/07 08:25:22;;;;;;;4.20;1.23;;;11.00;92.30;;;;;;5099855;28;20115;-80
2021/11/07 08:27:51;;;;;;;4.38;1.75;;;11.10;92.20;;;;;;5102531;28;20442;-79
2021/11/07 08:30:21;;;;;;;3.67;1.30;;;11.10;92.00;;;;;;5106167;28;20043;-80
2021/11/07 08:32:46;;;;;;;5.65;1.25;;;11.20;91.90;;;;;;5094854;28;20032;-80
2021/11/07 08:35:13;;;;;;;7.75;2.03;;;11.20;91.70;;;;;;5095508;28;20039;-80
2021/11/07 08:37:54;;;;;;;8.77;1.73;;;11.20;91.50;;;;;;5103052;28;20062;-79
2021/11/07 08:40:42;;;;;;;5.68;1.00;;;11.20;91.50;;;;;;5098696;28;20036;-83
2021/11/07 09:05:19;;;;;;;13.63;2.83;;;11.10;92.10;;;;;;5102129;28;20027;-80
2021/11/07 09:10:33;;;;;;;14.90;3.13;;;11.20;92.30;;;;;;5093338;28;20360;-79
2021/11/07 09:13:02;;;;;;;11.40;2.67;;;11.10;92.40;;;;;;5100757;28;20123;-79
2021/11/07 09:15:32;;;;;;;11.63;1.73;;;11.20;92.40;;;;;;5098425;28;20036;-76
2021/11/07 09:17:59;;;;;;;4.13;1.35;;;11.10;92.40;;;;;;5096737;28;20040;-79
2021/11/07 09:20:35;;;;;;;4.85;1.23;;;11.10;92.50;;;;;;5101308;28;20126;-82
2021/11/07 09:23:05;;;;;;;12.57;1.70;;;11.20;92.50;;;;;;5095679;28;20028;-82
2021/11/07 09:25:38;;;;;;;7.30;1.83;;;11.10;92.40;;;;;;5098302;28;20028;-82
2021/11/07 09:30:43;;;;;;;10.57;2.40;;;11.20;92.40;;;;;;5099921;28;20023;-86
2021/11/07 09:33:30;;;;;;;8.73;1.77;;;11.20;92.30;;;;;;5103403;28;20043;-83
2021/11/07 09:38:31;;;;;;;11.57;2.53;;;11.20;92.40;;;;;;5102573;28;20398;-84
2021/11/07 09:41:20;;;;;;;12.25;3.17;;;11.10;92.40;;;;;;5104494;28;20070;-87
2021/11/07 09:44:05;;;;;;;12.35;2.22;;;11.20;92.50;;;;;;5095639;28;20035;-81
2021/11/07 09:46:38;;;;;;;11.38;2.50;;;11.20;92.50;;;;;;5095869;28;20049;-83
2021/11/07 09:52:12;;;;;;;12.57;2.57;;;11.20;92.40;;;;;;5045780;28;20060;-85
2021/11/07 09:54:45;;;;;;;9.77;2.00;;;11.20;92.20;;;;;;5074566;28;20052;-85
2021/11/07 09:57:12;;;;;;;15.13;2.25;;;11.30;92.00;;;;;;5076903;28;20488;-85
2021/11/07 09:59:38;;;;;;;5.90;1.48;;;11.30;91.90;;;;;;5080002;28;20071;-84
2021/11/07 10:02:04;;;;;;;4.60;0.95;;;11.40;91.90;;;;;;5078662;28;20031;-86
2021/11/07 10:04:32;;;;;;;2.90;0.90;;;11.40;91.70;;;;;;5079531;28;20029;-85
2021/11/07 10:07:20;;;;;;;3.92;1.33;;;11.50;91.60;;;;;;5079954;28;20111;-85
2021/11/07 10:09:52;;;;;;;1.65;0.95;;;11.60;91.60;;;;;;5074753;28;20029;-77
2021/11/07 10:12:22;;;;;;;3.42;1.65;;;11.60;91.50;;;;;;5072205;28;20484;-77
2021/11/07 10:14:54;;;;;;;8.07;2.20;;;11.60;91.40;;;;;;5079076;28;20032;-82
2021/11/07 10:17:41;;;;;;;11.68;1.42;;;11.60;91.40;;;;;;5074484;28;20331;-84
2021/11/07 10:20:38;;;;;;;4.13;1.67;;;11.70;91.50;;;;;;5071883;28;20101;-84
2021/11/07 10:23:38;;;;;;;10.65;2.40;;;11.70;91.50;;;;;;5078182;28;20111;-85
2021/11/07 10:28:45;;;;;;;21.23;2.83;;;11.70;91.80;;;;;;5076182;28;20107;-76
2021/11/07 10:37:28;;;;;;;5.57;1.45;;;11.60;92.20;;;;;;5074687;28;20024;-80
2021/11/07 10:40:19;;;;;;;9.88;1.83;;;11.60;92.20;;;;;;5078615;28;20044;-85
2021/11/07 10:54:27;;;;;;;13.02;1.00;;;11.60;91.80;;;;;;5094642;28;20048;-70
2021/11/07 10:57:15;;;;;;;7.22;2.45;;;11.60;91.90;;;;;;5101490;28;20048;-81
2021/11/07 10:59:41;;;;;;;7.43;1.90;;;11.60;92.00;;;;;;5094979;28;20024;-82
2021/11/07 11:02:33;;;;;;;4.13;1.42;;;11.60;92.00;;;;;;5099992;28;20108;-85
2021/11/07 11:05:07;;;;;;;12.00;1.83;;;11.70;92.10;;;;;;5103008;28;20033;-74
2021/11/07 11:08:16;;;;;;;11.82;2.30;;;11.70;92.10;;;;;;5098188;28;20024;-79
2021/11/07 11:13:26;;;;;;;3.67;1.30;;;11.80;92.10;;;;;;5098845;28;20071;-79
2021/11/07 11:16:16;;;;;;;13.38;2.72;;;11.80;92.10;;;;;;5099599;28;20031;-82
2021/11/07 11:19:25;;;;;;;8.68;1.90;;;11.90;92.00;;;;;;5103071;28;20092;-78
2021/11/07 11:22:07;;;;;;;4.97;2.20;;;11.90;92.00;;;;;;5111030;27;20051;-78
2021/11/07 11:27:40;;;;;;;12.43;2.10;;;12.00;91.90;;;;;;5095278;28;20436;-84
2021/11/07 11:31:03;;;;;;;13.18;1.80;;;12.20;91.80;;;;;;5098092;28;20023;-81
2021/11/07 11:33:11;;;;;;;12.57;2.30;;;12.20;91.70;;;;;;5073069;28;20414;-80
2021/11/07 11:41:08;;;;;;;5.72;1.27;;;12.40;91.50;;;;;;5098488;28;20032;-80
2021/11/07 11:43:46;;;;;;;9.20;1.85;;;12.50;91.50;;;;;;5099019;28;20028;-80
2021/11/07 11:46:27;;;;;;;8.05;2.08;;;12.50;91.50;;;;;;5099833;28;20043;-79
2021/11/07 12:08:34;;;;;;;5.97;1.77;;;12.20;92.40;;;;;;5108550;27;20033;-80
2021/11/07 12:11:27;;;;;;;9.75;2.90;;;12.30;92.40;;;;;;5106246;27;20051;-83
2021/11/07 12:16:58;;;;;;;14.02;2.35;;;12.30;92.00;;;;;;5105572;28;20024;-85
2021/11/07 12:19:41;;;;;;;11.55;2.90;;;12.40;91.70;;;;;;5093493;28;20035;-82
2021/11/07 12:22:13;;;;;;;7.60;2.10;;;12.40;91.30;;;;;;5093609;28;20032;-75
2021/11/07 12:24:48;;;;;;;4.28;1.98;;;12.50;91.60;;;;;;5100186;28;20059;-83
2021/11/07 12:27:22;;;;;;;5.43;1.25;;;12.50;91.70;;;;;;5103387;28;20686;-80
2021/11/07 12:29:59;;;;;;;15.57;3.25;;;12.50;91.70;;;;;;5097244;28;20081;-81
2021/11/07 12:32:37;;;;;;;2.67;1.27;;;12.60;91.70;;;;;;5100510;27;20497;-82
2021/11/07 12:35:13;;;;;;;3.88;1.60;;;12.60;91.70;;;;;;5105831;27;20047;-82
2021/11/07 12:40:52;;;;;;;5.80;2.03;;;12.70;91.90;;;;;;5104341;28;20441;-84
2021/11/07 12:43:37;;;;;;;13.40;2.63;;;12.70;91.90;;;;;;5106044;28;20028;-82
2021/11/07 12:46:14;;;;;;;24.10;2.75;;;12.70;91.90;;;;;;5100390;28;20058;-83
2021/11/07 12:48:54;;;;;;;6.85;1.48;;;12.70;92.00;;;;;;5098382;28;20055;-76
2021/11/07 12:51:26;;;;;;;25.83;3.67;;;12.70;91.90;;;;;;5099565;28;20085;-86
2021/11/07 12:54:02;;;;;;;11.93;2.55;;;12.80;91.40;;;;;;5106440;28;20083;-84
2021/11/07 12:56:35;;;;;;;15.93;2.90;;;12.80;91.20;;;;;;5104001;28;20036;-85
2021/11/07 12:59:08;;;;;;;14.65;3.60;;;12.90;89.60;;;;;;5099916;28;20486;-86
2021/11/07 13:01:52;;;;;;;11.03;2.43;;;12.80;88.20;;;;;;5101518;28;20372;-84
2021/11/07 13:04:21;;;;;;;5.57;1.38;;;12.80;90.10;;;;;;5108132;27;20032;-87
2021/11/07 13:06:55;;;;;;;9.20;2.00;;;12.80;90.80;;;;;;5104282;28;20032;-89
2021/11/07 13:09:41;;;;;;;7.20;1.95;;;12.80;90.50;;;;;;5108030;27;20032;-85
2021/11/07 13:12:20;;;;;;;12.52;3.63;;;12.80;90.00;;;;;;5099265;28;20031;-81
2021/11/07 13:26:59;;;;;;;4.40;1.65;;;13.00;90.00;;;;;;5106063;27;20027;-81
2021/11/07 13:29:32;;;;;;;14.45;3.70;;;12.90;90.40;;;;;;5102092;27;20103;-82
2021/11/07 13:34:59;;;;;;;;;;;12.90;90.20;;;;;;5094858;28;20040;-83
2021/11/07 13:37:37;;;;;;;9.60;2.35;;;12.90;90.30;;;;;;5097120;28;19934;-82
2021/11/07 13:40:18;;;;;;;7.93;1.58;;;12.80;89.90;;;;;;5093630;28;20024;-83
2021/11/07 13:42:45;;;;;;;2.55;1.25;;;12.80;90.50;;;;;;5093401;28;20016;-82
2021/11/07 13:45:43;;;;;;;5.18;1.17;;;12.80;90.60;;;;;;5094649;28;20036;-84
2021/11/07 13:48:17;;;;;;;0.95;0.63;;;12.80;90.70;;;;;;5080743;28;20044;-81
2021/11/07 13:50:43;;;;;;;8.18;1.50;;;12.80;90.80;;;;;;5091459;28;20035;-80
2021/11/07 13:53:20;;;;;;;5.13;1.77;;;12.90;90.80;;;;;;5094752;27;20048;-81
2021/11/07 13:55:51;;;;;;;5.75;1.58;;;12.90;90.80;;;;;;5094560;28;20032;-81
2021/11/07 13:58:20;;;;;;;11.98;2.20;;;13.00;90.90;;;;;;5099738;28;20162;-81
2021/11/07 14:00:47;;;;;;;4.90;1.67;;;13.00;90.90;;;;;;5099874;28;20444;-82
2021/11/07 14:03:16;;;;;;;10.85;2.28;;;13.00;90.80;;;;;;5096637;28;20039;-82
2021/11/07 14:06:13;;;;;;;9.75;1.73;;;13.00;90.70;;;;;;5099595;28;20170;-81
2021/11/07 14:08:54;;;;;;;9.50;2.10;;;13.10;90.70;;;;;;5092422;28;20048;-85
2021/11/07 14:11:21;;;;;;;6.40;2.17;;;13.10;90.80;;;;;;5099600;28;20092;-80
2021/11/07 14:13:58;;;;;;;13.10;2.47;;;13.10;90.60;;;;;;5092807;28;20333;-74
2021/11/07 14:16:47;;;;;;;7.78;2.35;;;13.10;90.60;;;;;;5101019;28;20035;-80
2021/11/07 14:19:14;;;;;;;10.25;1.98;;;13.10;90.60;;;;;;5092191;28;20089;-80
2021/11/07 14:21:43;;;;;;;13.68;2.33;;;13.00;90.50;;;;;;5093434;28;20028;-81
2021/11/07 14:27:09;;;;;;;1.80;1.08;;;13.00;90.50;;;;;;5071378;28;20506;-80
2021/11/07 14:29:40;;;;;;;6.15;1.63;;;13.00;90.50;;;;;;5097740;28;20047;-80
2021/11/07 14:32:30;;;;;;;3.92;1.30;;;13.00;90.40;;;;;;5092642;28;20032;-80
2021/11/07 14:40:15;;;;;;;4.35;2.03;;;12.90;90.30;;;;;;5106327;28;20080;-82
2021/11/07 15:08:05;;;;;;;7.63;1.50;;;13.00;90.10;;;;;;5109384;28;20035;-80
2021/11/07 15:10:51;;;;;;;3.45;1.40;;;13.00;90.30;;;;;;5097358;28;20038;-78
2021/11/07 15:13:35;;;;;;;9.70;1.23;;;13.00;90.40;;;;;;5103466;28;20032;-79
2021/11/07 15:16:18;;;;;;;10.25;1.67;;;13.00;90.30;;;;;;5093780;28;20032;-79
2021/11/07 15:19:10;;;;;;;12.57;2.10;;;13.00;90.20;;;;;;5096288;28;20456;-79
2021/11/07 15:24:15;;;;;;;8.50;2.10;;;13.00;90.00;;;;;;5100356;28;20031;-80
2021/11/07 15:26:51;;;;;;;7.35;1.27;;;12.90;89.90;;;;;;5104673;28;20031;-80
2021/11/07 15:29:20;;;;;;;9.48;1.58;;;12.90;90.00;;;;;;5103205;28;20024;-80
2021/11/07 15:31:46;;;;;;;8.50;1.55;;;12.80;90.00;;;;;;5099943;28;20039;-80
2021/11/07 15:34:26;;;;;;;14.23;2.13;;;12.90;90.10;;;;;;5103476;28;20050;-80
2021/11/07 15:36:52;;;;;;;17.88;2.63;;;12.80;90.00;;;;;;5098150;28;20031;-80
2021/11/07 15:39:23;;;;;;;9.85;1.60;;;12.80;89.90;;;;;;5101663;28;20031;-80
2021/11/07 15:42:07;;;;;;;7.88;1.83;;;12.80;90.00;;;;;;5104291;28;20463;-80
2021/11/07 15:44:48;;;;;;;5.45;1.25;;;12.90;90.20;;;;;;5102967;28;20409;-80
2021/11/07 15:47:17;;;;;;;8.90;2.13;;;12.90;90.20;;;;;;5100356;28;20059;-79
2021/11/07 15:49:58;;;;;;;4.78;1.45;;;12.90;90.10;;;;;;5102195;28;20019;-80
2021/11/07 15:52:34;;;;;;;10.85;2.63;;;12.90;90.10;;;;;;5103224;28;20432;-78
2021/11/07 16:00:41;;;;;;;18.52;2.83;;;12.80;89.30;;;;;;5073233;28;20423;-80
2021/11/07 16:03:23;;;;;;;17.08;1.73;;;12.80;88.80;;;;;;5097730;28;20119;-79